Time;durP1;ratioP1;P1;durP2;ratioP2;P2;SDS_P1;SDS_P2;PMS_P1;PMS_P2;Temp;Humidity;BMP_temperature;BMP_pressure;BME280_temperature;BME280_humidity;BME280_pressure;Samples;Min_cycle;Max_cycle;Signal;HPM_P1;HPM_P2
2022/10/17 00:00:00;;;;;;;4.75;3.08;;;;;;;-145.48;100.00;64539.38;6046487;29;20440;-94
2022/10/17 00:04:00;;;;;;;3.78;2.42;;;;;;;-145.48;100.00;64539.38;6028537;29;20045;-93
2022/10/17 00:08:01;;;;;;;2.92;2.60;;;;;;;-145.48;100.00;64539.38;6043584;29;20041;-94
2022/10/17 00:12:03;;;;;;;3.65;2.38;;;;;;;-145.48;100.00;64539.38;6042755;29;20053;-94
2022/10/17 00:16:05;;;;;;;2.70;2.30;;;;;;;-145.48;100.00;64539.38;6038182;29;20041;-94
2022/10/17 00:20:06;;;;;;;2.70;2.50;;;;;;;-145.48;100.00;64539.38;6056461;29;20057;-94
2022/10/17 00:24:06;;;;;;;3.97;2.30;;;;;;;-145.48;100.00;64539.38;6043467;29;20045;-93
2022/10/17 00:28:11;;;;;;;3.83;2.70;;;;;;;-145.48;100.00;64539.38;6039570;29;20504;-94
2022/10/17 00:32:11;;;;;;;6.18;3.15;;;;;;;-145.48;100.00;64539.38;6045601;29;20883;-94
2022/10/17 00:36:14;;;;;;;4.72;2.97;;;;;;;-145.48;100.00;64539.38;6055373;29;20072;-94
2022/10/17 00:40:14;;;;;;;4.90;2.90;;;;;;;-145.48;100.00;64539.38;6044086;29;20041;-94
2022/10/17 00:44:27;;;;;;;4.07;3.08;;;;;;;-145.48;100.00;64539.38;6034147;29;20053;-94
2022/10/17 00:48:28;;;;;;;4.07;3.05;;;;;;;-145.48;100.00;64539.38;6054655;29;20045;-94
2022/10/17 00:52:32;;;;;;;4.78;2.90;;;;;;;-145.48;100.00;64539.38;6026223;29;20507;-94
2022/10/17 00:56:37;;;;;;;3.03;2.72;;;;;;;-145.48;100.00;64539.38;6052100;29;20037;-95
2022/10/17 01:00:41;;;;;;;4.30;2.90;;;;;;;-145.48;100.00;64539.38;6041013;29;20405;-94
2022/10/17 01:04:43;;;;;;;3.65;2.63;;;;;;;-145.48;100.00;64539.38;6036456;29;20069;-94
2022/10/17 01:08:46;;;;;;;3.13;2.75;;;;;;;-145.48;100.00;64539.38;6044036;29;20571;-95
2022/10/17 01:12:58;;;;;;;3.30;2.83;;;;;;;-145.48;100.00;64539.38;6043311;29;20662;-94
2022/10/17 01:17:28;;;;;;;4.40;3.00;;;;;;;-145.48;100.00;64539.38;6035703;29;20423;-94
2022/10/17 01:21:54;;;;;;;5.10;2.75;;;;;;;-145.48;100.00;64539.38;6040114;29;20048;-94
2022/10/17 01:26:20;;;;;;;3.72;2.38;;;;;;;-145.48;100.00;64539.38;6035207;29;20296;-95
2022/10/17 01:30:50;;;;;;;3.80;2.60;;;;;;;-145.48;100.00;64539.38;6053234;29;20054;-94
2022/10/17 01:35:09;;;;;;;3.95;2.80;;;;;;;-145.48;100.00;64539.38;6047180;29;20080;-94
2022/10/17 01:39:19;;;;;;;4.50;2.63;;;;;;;-145.48;100.00;64539.38;6044195;29;20523;-94
2022/10/17 01:43:56;;;;;;;3.08;2.72;;;;;;;-145.48;100.00;64539.38;6057909;29;20052;-95
2022/10/17 01:48:02;;;;;;;4.13;2.75;;;;;;;-145.48;100.00;64539.38;6017974;29;20102;-94
2022/10/17 01:52:10;;;;;;;4.30;2.78;;;;;;;-145.48;100.00;64539.38;6020725;29;20516;-95
2022/10/17 01:56:19;;;;;;;5.13;2.80;;;;;;;-145.48;100.00;64539.38;6008482;29;20186;-94
2022/10/17 02:00:30;;;;;;;3.47;3.00;;;;;;;-145.48;100.00;64539.38;6006346;29;20060;-94
2022/10/17 02:04:33;;;;;;;3.85;2.90;;;;;;;-145.48;100.00;64539.38;5977952;29;20487;-94
2022/10/17 02:08:40;;;;;;;7.00;3.20;;;;;;;-145.48;100.00;64539.38;6004667;29;20097;-95
2022/10/17 02:12:46;;;;;;;4.97;3.47;;;;;;;-145.48;100.00;64539.38;6009136;29;20144;-94
2022/10/17 02:17:08;;;;;;;5.15;3.55;;;;;;;-145.48;100.00;64539.38;6005093;29;20053;-94
2022/10/17 02:21:19;;;;;;;6.40;3.50;;;;;;;-145.48;100.00;64539.38;6002462;29;20094;-95
2022/10/17 02:25:28;;;;;;;;;;;;;;;-145.48;100.00;64539.38;6045893;29;20041;-95
2022/10/17 02:29:49;;;;;;;4.25;3.38;;;;;;;-145.48;100.00;64539.38;6029206;29;19932;-95
2022/10/17 02:33:55;;;;;;;3.20;2.83;;;;;;;-145.48;100.00;64539.38;6019169;29;20053;-94
2022/10/17 02:37:58;;;;;;;4.90;3.47;;;;;;;-145.48;100.00;64539.38;6042654;29;20078;-95
2022/10/17 02:42:02;;;;;;;4.18;3.45;;;;;;;-145.48;100.00;64539.38;6056702;29;20476;-94
2022/10/17 02:46:04;;;;;;;4.78;3.92;;;;;;;-145.48;100.00;64539.38;6036029;29;20488;-94
2022/10/17 02:50:08;;;;;;;5.38;3.78;;;;;;;-145.48;100.00;64539.38;6060154;29;20535;-94
2022/10/17 02:54:25;;;;;;;5.45;3.38;;;;;;;-145.48;100.00;64539.38;6041813;29;20048;-95
2022/10/17 02:58:35;;;;;;;4.38;3.67;;;;;;;-145.48;100.00;64539.38;6043224;29;20044;-94
2022/10/17 03:02:42;;;;;;;4.23;3.63;;;;;;;-145.48;100.00;64539.38;6059782;29;20041;-94
2022/10/17 03:06:43;;;;;;;5.68;3.40;;;;;;;-145.48;100.00;64539.38;6059352;29;20528;-95
2022/10/17 03:10:44;;;;;;;5.45;3.85;;;;;;;-145.48;100.00;64539.38;6028207;29;20393;-95
2022/10/17 03:14:44;;;;;;;4.13;3.17;;;;;;;-145.48;100.00;64539.38;6043632;29;20426;-94
2022/10/17 03:18:45;;;;;;;5.97;3.53;;;;;;;-145.48;100.00;64539.38;6043835;29;20101;-96
2022/10/17 03:22:49;;;;;;;5.97;3.70;;;;;;;-145.48;100.00;64539.38;6045330;29;20049;-94
2022/10/17 03:26:50;;;;;;;5.53;3.30;;;;;;;-145.48;100.00;64539.38;6041750;29;20077;-95
2022/10/17 03:30:51;;;;;;;4.53;3.47;;;;;;;-145.48;100.00;64539.38;6033404;29;20631;-95
2022/10/17 03:34:52;;;;;;;5.38;3.60;;;;;;;-145.48;100.00;64539.38;6040058;29;20228;-95
2022/10/17 03:38:53;;;;;;;4.97;3.58;;;;;;;-145.48;100.00;64539.38;6046855;29;20048;-95
2022/10/17 03:42:55;;;;;;;4.43;3.50;;;;;;;-145.48;100.00;64539.38;6044430;29;20121;-94
2022/10/17 03:46:57;;;;;;;3.42;2.80;;;;;;;-145.48;100.00;64539.38;6043382;29;20123;-95
2022/10/17 03:51:03;;;;;;;5.82;2.78;;;;;;;-145.48;100.00;64539.38;6043660;29;20104;-95
2022/10/17 03:55:06;;;;;;;5.15;3.40;;;;;;;-145.48;100.00;64539.38;6032297;29;20057;-95
2022/10/17 03:59:06;;;;;;;4.35;2.78;;;;;;;-145.48;100.00;64539.38;6052533;29;20136;-95
2022/10/17 04:03:11;;;;;;;3.08;2.65;;;;;;;-145.48;100.00;64539.38;6028538;29;20049;-94
2022/10/17 04:07:18;;;;;;;4.07;3.10;;;;;;;-145.48;100.00;64539.38;6039130;29;20053;-94
2022/10/17 04:11:20;;;;;;;5.45;3.08;;;;;;;-145.48;100.00;64539.38;6043730;29;20052;-95
2022/10/17 04:15:21;;;;;;;6.13;3.08;;;;;;;-145.48;100.00;64539.38;6042421;29;20064;-95
2022/10/17 04:19:22;;;;;;;3.40;3.03;;;;;;;-145.48;100.00;64539.38;6023170;29;20660;-96
2022/10/17 04:23:25;;;;;;;4.70;3.13;;;;;;;-145.48;100.00;64539.38;6047641;29;20037;-94
2022/10/17 04:27:31;;;;;;;4.63;3.25;;;;;;;-145.48;100.00;64539.38;6029499;29;20045;-95
2022/10/17 04:31:32;;;;;;;4.07;2.97;;;;;;;-145.48;100.00;64539.38;6042076;29;20049;-94
2022/10/17 04:36:03;;;;;;;7.03;3.35;;;;;;;-145.48;100.00;64539.38;6036063;29;20053;-94
2022/10/17 04:40:04;;;;;;;4.82;3.25;;;;;;;-145.48;100.00;64539.38;6053277;29;20578;-94
2022/10/17 04:44:07;;;;;;;6.13;3.33;;;;;;;-145.48;100.00;64539.38;6038068;29;20055;-94
2022/10/17 04:48:11;;;;;;;6.43;3.15;;;;;;;-145.48;100.00;64539.38;6047420;29;20045;-95
2022/10/17 04:52:13;;;;;;;4.57;2.75;;;;;;;-145.48;100.00;64539.38;6038852;29;20052;-96
2022/10/17 04:56:23;;;;;;;3.90;3.10;;;;;;;-145.48;100.00;64539.38;6041233;29;20197;-95
2022/10/17 05:00:26;;;;;;;7.93;3.22;;;;;;;-145.48;100.00;64539.38;6051651;29;20049;-95
2022/10/17 05:04:46;;;;;;;5.28;3.00;;;;;;;-145.48;100.00;64539.38;6043436;29;20136;-95
2022/10/17 05:08:49;;;;;;;7.20;3.35;;;;;;;-145.48;100.00;64539.38;6045821;29;20041;-95
2022/10/17 05:12:51;;;;;;;3.80;3.15;;;;;;;-145.48;100.00;64539.38;6035389;29;20503;-95
2022/10/17 05:17:01;;;;;;;6.18;3.33;;;;;;;-145.48;100.00;64539.38;6046531;29;20645;-95
2022/10/17 05:21:03;;;;;;;3.97;3.25;;;;;;;-145.48;100.00;64539.38;6022545;29;20077;-94
2022/10/17 05:25:06;;;;;;;3.72;3.15;;;;;;;-145.48;100.00;64539.38;6026485;29;20192;-95
2022/10/17 05:29:07;;;;;;;6.38;3.17;;;;;;;-145.48;100.00;64539.38;6049537;29;20056;-95
2022/10/17 05:33:12;;;;;;;5.15;3.22;;;;;;;-145.48;100.00;64539.38;6055701;29;20052;-95
2022/10/17 05:37:13;;;;;;;4.65;3.10;;;;;;;-145.48;100.00;64539.38;6039635;29;20513;-95
2022/10/17 05:41:19;;;;;;;8.40;3.25;;;;;;;-145.48;100.00;64539.38;6056956;29;20045;-95
2022/10/17 05:45:20;;;;;;;3.90;3.20;;;;;;;-145.48;100.00;64539.38;6051376;29;20045;-95
2022/10/17 05:49:22;;;;;;;4.13;3.40;;;;;;;-145.48;100.00;64539.38;6048755;29;20044;-94
2022/10/17 05:53:43;;;;;;;6.03;3.15;;;;;;;-145.48;100.00;64539.38;6028772;29;20041;-95
2022/10/17 05:57:51;;;;;;;3.15;2.83;;;;;;;-145.48;100.00;64539.38;6034604;29;20045;-95
2022/10/17 06:01:59;;;;;;;4.47;3.05;;;;;;;-145.48;100.00;64539.38;6044299;29;20052;-95
2022/10/17 06:06:07;;;;;;;3.50;3.20;;;;;;;-145.48;100.00;64539.38;6047567;29;20067;-96
2022/10/17 06:10:11;;;;;;;5.38;3.17;;;;;;;-145.48;100.00;64539.38;6043044;29;20049;-95
2022/10/17 06:14:17;;;;;;;4.85;3.13;;;;;;;-145.48;100.00;64539.38;6048785;29;20076;-95
2022/10/17 06:18:21;;;;;;;3.72;2.90;;;;;;;-145.48;100.00;64539.38;6042229;29;20515;-95
2022/10/17 06:22:24;;;;;;;4.45;2.88;;;;;;;-145.48;100.00;64539.38;6056617;29;20049;-95
2022/10/17 06:26:28;;;;;;;3.38;2.95;;;;;;;-145.48;100.00;64539.38;6043747;29;20072;-95
2022/10/17 06:30:29;;;;;;;5.30;3.10;;;;;;;-145.48;100.00;64539.38;6052101;29;20041;-95
2022/10/17 06:34:31;;;;;;;5.20;3.42;;;;;;;-145.48;100.00;64539.38;6057344;29;20052;-95
2022/10/17 06:38:41;;;;;;;3.90;3.20;;;;;;;-145.48;100.00;64539.38;6038580;29;20056;-95
2022/10/17 06:42:55;;;;;;;5.47;3.28;;;;;;;-145.48;100.00;64539.38;6045559;29;20056;-95
2022/10/17 06:47:11;;;;;;;5.88;3.50;;;;;;;-145.48;100.00;64539.38;6030611;29;20771;-94
2022/10/17 06:51:25;;;;;;;10.98;7.22;;;;;;;-145.48;100.00;64539.38;6061168;29;20084;-96
2022/10/17 06:55:31;;;;;;;;;;;;;;;-145.48;100.00;64539.38;6045443;29;20180;-95
2022/10/17 06:59:59;;;;;;;3.95;3.05;;;;;;;-145.48;100.00;64539.38;6045656;29;19932;-94
2022/10/17 07:04:10;;;;;;;3.95;3.30;;;;;;;-145.48;100.00;64539.38;6051148;29;20068;-95
2022/10/17 07:08:11;;;;;;;6.00;3.72;;;;;;;-145.48;100.00;64539.38;6044998;29;20057;-96
2022/10/17 07:12:16;;;;;;;4.35;3.22;;;;;;;-145.48;100.00;64539.38;6045985;29;20044;-96
2022/10/17 07:16:21;;;;;;;5.90;3.50;;;;;;;-145.48;100.00;64539.38;6043489;29;20247;-96
2022/10/17 07:20:31;;;;;;;6.90;3.55;;;;;;;-145.48;100.00;64539.38;6031925;29;20053;-95
2022/10/17 07:24:38;;;;;;;5.07;3.63;;;;;;;-145.48;100.00;64539.38;6037138;29;20045;-96
2022/10/17 07:29:07;;;;;;;6.55;4.95;;;;;;;-145.48;100.00;64539.38;6052924;29;20060;-95
2022/10/17 07:33:26;;;;;;;9.10;3.92;;;;;;;-145.48;100.00;64539.38;6051883;29;20501;-95
2022/10/17 07:37:32;;;;;;;7.40;4.00;;;;;;;-145.48;100.00;64539.38;6044517;29;20045;-95
2022/10/17 07:41:36;;;;;;;6.10;3.95;;;;;;;-145.48;100.00;64539.38;6046029;29;20045;-95
2022/10/17 07:45:39;;;;;;;7.35;4.18;;;;;;;-145.48;100.00;64539.38;6028040;29;20577;-95
2022/10/17 07:49:42;;;;;;;5.68;3.38;;;;;;;-145.48;100.00;64539.38;6034687;29;20096;-95
2022/10/17 07:53:44;;;;;;;6.47;3.50;;;;;;;-145.48;100.00;64539.38;6055827;29;20049;-94
2022/10/17 07:57:48;;;;;;;4.60;3.17;;;;;;;-145.48;100.00;64539.38;6039623;29;20420;-92
2022/10/17 08:01:48;;;;;;;5.30;3.60;;;;;;;-145.48;100.00;64539.38;6036697;29;20049;-92
2022/10/17 08:05:49;;;;;;;7.28;3.42;;;;;;;-145.48;100.00;64539.38;6052982;29;20512;-93
2022/10/17 08:09:50;;;;;;;5.47;3.35;;;;;;;-145.48;100.00;64539.38;6044809;29;20040;-92
2022/10/17 08:13:55;;;;;;;8.25;3.17;;;;;;;-145.48;100.00;64539.38;6042604;29;20037;-92
2022/10/17 08:17:55;;;;;;;4.88;3.15;;;;;;;-145.48;100.00;64539.38;6042169;29;20048;-92
2022/10/17 08:22:03;;;;;;;4.70;3.15;;;;;;;-145.48;100.00;64539.38;6042185;29;20044;-92
2022/10/17 08:26:06;;;;;;;5.32;3.50;;;;;;;-145.48;100.00;64539.38;6042802;29;20045;-93
2022/10/17 08:30:14;;;;;;;4.68;3.38;;;;;;;-145.48;100.00;64539.38;6048484;29;20052;-92
2022/10/17 08:34:14;;;;;;;6.28;3.42;;;;;;;-145.48;100.00;64539.38;6046047;29;20084;-93
2022/10/17 08:38:15;;;;;;;3.65;3.35;;;;;;;-145.48;100.00;64539.38;6049296;29;20045;-92
2022/10/17 08:42:41;;;;;;;4.50;3.50;;;;;;;-145.48;100.00;64539.38;6047225;29;20072;-92
2022/10/17 08:46:47;;;;;;;4.55;3.17;;;;;;;-145.48;100.00;64539.38;6041646;29;20049;-92
2022/10/17 08:51:02;;;;;;;3.95;2.90;;;;;;;-145.48;100.00;64539.38;6045333;29;20869;-93
2022/10/17 08:55:26;;;;;;;4.93;3.13;;;;;;;-145.48;100.00;64539.38;6048861;29;20416;-92
2022/10/17 08:59:32;;;;;;;4.28;3.17;;;;;;;-145.48;100.00;64539.38;6046933;29;20452;-92
2022/10/17 09:04:13;;;;;;;4.25;3.00;;;;;;;-145.48;100.00;64539.38;6042484;29;20177;-92
2022/10/17 09:08:48;;;;;;;4.40;3.00;;;;;;;-145.48;100.00;64539.38;6046310;29;20080;-92
2022/10/17 09:13:09;;;;;;;3.30;2.90;;;;;;;-145.48;100.00;64539.38;6048647;29;20085;-92
2022/10/17 09:17:25;;;;;;;;;;;;;;;-145.48;100.00;64539.38;6035417;29;20096;-92
2022/10/17 09:21:28;;;;;;;5.45;3.28;;;;;;;-145.48;100.00;64539.38;6048853;29;20318;-93
2022/10/17 09:25:43;;;;;;;6.93;2.83;;;;;;;-145.48;100.00;64539.38;6044162;29;20049;-92
2022/10/17 09:29:53;;;;;;;6.15;3.35;;;;;;;-145.48;100.00;64539.38;6047451;29;20041;-92
2022/10/17 09:33:55;;;;;;;4.72;3.00;;;;;;;-145.48;100.00;64539.38;6042159;29;20495;-92
2022/10/17 09:37:57;;;;;;;4.70;3.42;;;;;;;-145.48;100.00;64539.38;6041867;29;20045;-92
2022/10/17 09:42:00;;;;;;;5.68;3.10;;;;;;;-145.48;100.00;64539.38;6041906;29;20505;-92
2022/10/17 09:46:12;;;;;;;4.88;2.90;;;;;;;-145.48;100.00;64539.38;6059270;29;20045;-92
2022/10/17 09:50:20;;;;;;;4.82;3.03;;;;;;;-145.48;100.00;64539.38;6049380;29;20048;-91
2022/10/17 09:54:26;;;;;;;4.22;2.70;;;;;;;-145.48;100.00;64539.38;6042743;29;20156;-92
2022/10/17 09:58:47;;;;;;;4.45;2.90;;;;;;;-145.48;100.00;64539.38;6037144;29;20053;-91
2022/10/17 10:03:07;;;;;;;3.70;2.63;;;;;;;-145.48;100.00;64539.38;6040282;29;20049;-91
2022/10/17 10:07:19;;;;;;;4.22;3.10;;;;;;;-145.48;100.00;64539.38;6046560;29;20056;-91
2022/10/17 10:11:42;;;;;;;3.95;2.80;;;;;;;-145.48;100.00;64539.38;6047674;29;20709;-91
2022/10/17 10:15:44;;;;;;;5.35;2.88;;;;;;;-145.48;100.00;64539.38;6058617;29;20048;-91
2022/10/17 10:19:50;;;;;;;3.30;3.00;;;;;;;-145.48;100.00;64539.38;6033191;29;20053;-91
2022/10/17 10:24:12;;;;;;;4.45;2.65;;;;;;;-145.48;100.00;64539.38;6044241;29;20061;-91
2022/10/17 10:28:18;;;;;;;4.00;2.40;;;;;;;-145.48;100.00;64539.38;6041087;29;20045;-91
2022/10/17 10:32:29;;;;;;;3.85;2.38;;;;;;;-145.48;100.00;64539.38;6040990;29;20454;-92
2022/10/17 10:36:51;;;;;;;4.63;2.53;;;;;;;-145.48;100.00;64539.38;6046731;29;20137;-92
2022/10/17 10:41:28;;;;;;;5.50;2.80;;;;;;;-145.48;100.00;64539.38;6041744;29;20048;-92
2022/10/17 10:45:35;;;;;;;4.35;2.40;;;;;;;-145.48;100.00;64539.38;6027787;29;20576;-91
2022/10/17 10:50:07;;;;;;;5.60;2.70;;;;;;;-145.48;100.00;64539.38;6038010;29;20052;-91
2022/10/17 10:54:46;;;;;;;4.60;2.60;;;;;;;-145.48;100.00;64539.38;6043586;29;20599;-91
2022/10/17 10:59:12;;;;;;;3.22;2.83;;;;;;;-145.48;100.00;64539.38;6026583;29;20468;-91
2022/10/17 11:03:36;;;;;;;4.97;2.58;;;;;;;-145.48;100.00;64539.38;6045423;29;20079;-91
2022/10/17 11:07:48;;;;;;;3.42;2.40;;;;;;;-145.48;100.00;64539.38;6029038;29;20053;-90
2022/10/17 11:12:13;;;;;;;4.22;2.50;;;;;;;-145.48;100.00;64539.38;6034643;29;20144;-90
2022/10/17 11:16:46;;;;;;;3.97;2.80;;;;;;;-145.48;100.00;64539.38;6041857;29;20045;-90
2022/10/17 11:21:18;;;;;;;6.10;2.83;;;;;;;-145.48;100.00;64539.38;6046563;29;20605;-90
2022/10/17 11:25:27;;;;;;;4.68;2.55;;;;;;;-145.48;100.00;64539.38;6045930;29;20718;-89
2022/10/17 11:29:30;;;;;;;4.18;2.47;;;;;;;-145.48;100.00;64539.38;6053360;29;20566;-90
2022/10/17 11:33:55;;;;;;;8.07;2.90;;;;;;;-145.48;100.00;64539.38;6039988;29;20057;-91
2022/10/17 11:38:19;;;;;;;7.57;2.65;;;;;;;-145.48;100.00;64539.38;6046396;29;20570;-90
2022/10/17 11:43:00;;;;;;;5.35;2.20;;;;;;;-145.48;100.00;64539.38;6047110;29;20834;-90
2022/10/17 11:47:28;;;;;;;4.32;2.60;;;;;;;-145.48;100.00;64539.38;6035743;29;20049;-89
2022/10/17 11:51:45;;;;;;;3.25;2.45;;;;;;;-145.48;100.00;64539.38;6033708;29;20492;-90
2022/10/17 11:56:20;;;;;;;4.35;2.38;;;;;;;-145.48;100.00;64539.38;6044371;29;20579;-89
2022/10/17 12:00:57;;;;;;;2.90;2.40;;;;;;;-145.48;100.00;64539.38;6038832;29;20408;-89
2022/10/17 12:05:28;;;;;;;6.55;2.70;;;;;;;-145.48;100.00;64539.38;6044959;29;20056;-88
2022/10/17 12:10:06;;;;;;;4.00;2.28;;;;;;;-145.48;100.00;64539.38;6036323;29;20544;-89
2022/10/17 12:14:37;;;;;;;3.92;2.38;;;;;;;-145.48;100.00;64539.38;6046973;29;20050;-89
2022/10/17 12:18:39;;;;;;;6.28;2.70;;;;;;;-145.48;100.00;64539.38;6034781;29;20049;-89
2022/10/17 12:23:03;;;;;;;5.70;2.60;;;;;;;-145.48;100.00;64539.38;6042994;29;20453;-89
2022/10/17 12:27:24;;;;;;;5.05;2.60;;;;;;;-145.48;100.00;64539.38;6037933;29;20653;-89
2022/10/17 12:31:26;;;;;;;6.38;2.75;;;;;;;-145.48;100.00;64539.38;6035894;29;20242;-89
2022/10/17 12:35:34;;;;;;;6.68;2.50;;;;;;;-145.48;100.00;64539.38;6032918;29;20580;-89
2022/10/17 12:39:34;;;;;;;5.18;2.58;;;;;;;-145.48;100.00;64539.38;6053796;29;20139;-89
2022/10/17 12:43:53;;;;;;;6.65;2.40;;;;;;;-145.48;100.00;64539.38;6046481;29;20056;-89
2022/10/17 12:48:02;;;;;;;5.63;2.38;;;;;;;-145.48;100.00;64539.38;6037421;29;20050;-89
2022/10/17 12:52:13;;;;;;;6.80;3.03;;;;;;;-145.48;100.00;64539.38;6052579;29;20041;-89
2022/10/17 12:56:17;;;;;;;3.78;2.58;;;;;;;-145.48;100.00;64539.38;6044553;29;20056;-88
2022/10/17 13:00:40;;;;;;;5.03;2.80;;;;;;;-145.48;100.00;64539.38;6042466;29;20045;-88
2022/10/17 13:05:07;;;;;;;6.80;2.70;;;;;;;-145.48;100.00;64539.38;6041106;29;20052;-88
2022/10/17 13:09:32;;;;;;;2.95;2.47;;;;;;;-145.48;100.00;64539.38;6037309;29;20072;-88
2022/10/17 13:13:48;;;;;;;2.92;2.60;;;;;;;-145.48;100.00;64539.38;6036830;29;20051;-89
2022/10/17 13:18:06;;;;;;;5.72;2.70;;;;;;;-145.48;100.00;64539.38;6033830;29;20044;-88
2022/10/17 13:22:30;;;;;;;4.88;2.58;;;;;;;-145.48;100.00;64539.38;6042002;29;20572;-89
2022/10/17 13:26:31;;;;;;;4.68;2.92;;;;;;;-145.48;100.00;64539.38;6045123;29;20127;-88
2022/10/17 13:30:33;;;;;;;3.47;2.53;;;;;;;-145.48;100.00;64539.38;6041229;29;20120;-89
2022/10/17 13:34:38;;;;;;;3.65;2.63;;;;;;;-145.48;100.00;64539.38;6044517;29;20120;-88
2022/10/17 13:38:40;;;;;;;5.38;2.70;;;;;;;-145.48;100.00;64539.38;6042262;29;20045;-88
2022/10/17 13:42:42;;;;;;;4.35;2.70;;;;;;;-145.48;100.00;64539.38;6039604;29;20479;-88
2022/10/17 13:46:50;;;;;;;4.70;2.55;;;;;;;-145.48;100.00;64539.38;6041192;29;20124;-88
2022/10/17 13:50:53;;;;;;;8.10;3.22;;;;;;;-145.48;100.00;64539.38;6036028;29;20045;-88
2022/10/17 13:55:07;;;;;;;4.63;2.72;;;;;;;-145.48;100.00;64539.38;6044927;29;20108;-88
2022/10/17 13:59:24;;;;;;;5.90;2.78;;;;;;;-145.48;100.00;64539.38;6047171;29;20049;-88
2022/10/17 14:03:25;;;;;;;4.13;3.03;;;;;;;-145.48;100.00;64539.38;6042365;29;20420;-88
2022/10/17 14:07:54;;;;;;;5.00;2.85;;;;;;;-145.48;100.00;64539.38;6040806;29;20511;-88
2022/10/17 14:12:20;;;;;;;4.75;3.15;;;;;;;-145.48;100.00;64539.38;6045867;29;20048;-88
2022/10/17 14:16:24;;;;;;;5.03;2.83;;;;;;;-145.48;100.00;64539.38;6042928;29;20088;-88
2022/10/17 14:20:32;;;;;;;5.65;3.05;;;;;;;-145.48;100.00;64539.38;6043020;29;20053;-88
2022/10/17 14:25:30;;;;;;;5.75;3.50;;;;;;;-145.48;100.00;64539.38;6042841;29;20068;-88
2022/10/17 14:29:48;;;;;;;4.18;2.90;;;;;;;-145.48;100.00;64539.38;6028510;29;20508;-88
2022/10/17 14:33:53;;;;;;;3.92;2.95;;;;;;;-145.48;100.00;64539.38;6051143;29;20052;-88
2022/10/17 14:37:57;;;;;;;4.00;3.08;;;;;;;-145.48;100.00;64539.38;6023410;29;20068;-88
2022/10/17 14:41:58;;;;;;;5.30;3.28;;;;;;;-145.48;100.00;64539.38;6040667;29;20448;-88
2022/10/17 14:46:05;;;;;;;7.32;3.25;;;;;;;-145.48;100.00;64539.38;6041500;29;20129;-88
2022/10/17 14:50:14;;;;;;;5.50;3.05;;;;;;;-145.48;100.00;64539.38;6046686;29;20052;-88
2022/10/17 14:54:43;;;;;;;5.45;3.40;;;;;;;-145.48;100.00;64539.38;6045522;29;20504;-88
2022/10/17 14:58:43;;;;;;;6.93;3.08;;;;;;;-145.48;100.00;64539.38;6045824;29;20512;-88
2022/10/17 15:02:44;;;;;;;;;;;;;;;-145.48;100.00;64539.38;6038249;29;20034;-88
2022/10/17 15:06:52;;;;;;;4.65;3.03;;;;;;;-145.48;100.00;64539.38;6041556;29;19928;-88
2022/10/17 15:10:52;;;;;;;4.95;3.65;;;;;;;-145.48;100.00;64539.38;6047261;29;20114;-88
2022/10/17 15:14:53;;;;;;;6.15;3.30;;;;;;;-145.48;100.00;64539.38;6050573;29;20045;-88
2022/10/17 15:18:53;;;;;;;6.35;3.40;;;;;;;-145.48;100.00;64539.38;6040213;29;20489;-88
2022/10/17 15:22:55;;;;;;;8.18;3.33;;;;;;;-145.48;100.00;64539.38;6036027;29;20120;-88
2022/10/17 15:26:56;;;;;;;5.40;3.88;;;;;;;-145.48;100.00;64539.38;6038705;29;20088;-88
2022/10/17 15:30:56;;;;;;;9.10;3.45;;;;;;;-145.48;100.00;64539.38;6043415;29;20072;-88
2022/10/17 15:34:56;;;;;;;6.88;3.20;;;;;;;-145.48;100.00;64539.38;6044331;29;20500;-88
2022/10/17 15:38:58;;;;;;;;;;;;;;;-145.48;100.00;64539.38;6051444;29;20056;-89
2022/10/17 15:42:59;;;;;;;5.55;3.20;;;;;;;-145.48;100.00;64539.38;6036131;29;20405;-88
2022/10/17 15:47:00;;;;;;;9.25;3.47;;;;;;;-145.48;100.00;64539.38;6031147;29;20078;-89
2022/10/17 15:51:01;;;;;;;5.82;3.03;;;;;;;-145.48;100.00;64539.38;6046092;29;20045;-89
2022/10/17 15:55:02;;;;;;;7.15;3.80;;;;;;;-145.48;100.00;64539.38;6045755;29;20052;-89
2022/10/17 15:59:13;;;;;;;6.30;3.20;;;;;;;-145.48;100.00;64539.38;6036854;29;20503;-89
2022/10/17 16:03:15;;;;;;;5.70;3.35;;;;;;;-145.48;100.00;64539.38;6028812;29;20568;-89
2022/10/17 16:07:17;;;;;;;5.70;3.75;;;;;;;-145.48;100.00;64539.38;6049512;29;20516;-89
2022/10/17 16:11:26;;;;;;;8.45;3.92;;;;;;;-145.48;100.00;64539.38;6022824;29;20166;-89
2022/10/17 16:15:27;;;;;;;5.00;3.42;;;;;;;-145.48;100.00;64539.38;6031519;29;20053;-89
2022/10/17 16:19:28;;;;;;;;;;;;;;;-145.48;100.00;64539.38;6015839;29;20056;-89
2022/10/17 16:23:30;;;;;;;4.78;3.38;;;;;;;-145.48;100.00;64539.38;6028367;29;19935;-88
2022/10/17 16:27:32;;;;;;;8.55;3.78;;;;;;;-145.48;100.00;64539.38;6046346;29;20196;-89
2022/10/17 16:31:39;;;;;;;4.55;3.30;;;;;;;-145.48;100.00;64539.38;6038417;29;20174;-89
2022/10/17 16:35:40;;;;;;;7.85;3.88;;;;;;;-145.48;100.00;64539.38;6037113;29;20060;-88
2022/10/17 16:39:40;;;;;;;5.25;3.40;;;;;;;-145.48;100.00;64539.38;6050692;29;20477;-89
2022/10/17 16:43:41;;;;;;;7.32;3.63;;;;;;;-145.48;100.00;64539.38;6034063;29;20052;-89
2022/10/17 16:47:41;;;;;;;7.75;3.92;;;;;;;-145.48;100.00;64539.38;6049547;29;20193;-88
2022/10/17 16:51:41;;;;;;;7.80;4.22;;;;;;;-145.48;100.00;64539.38;6044959;29;20124;-89
2022/10/17 16:55:41;;;;;;;5.28;4.20;;;;;;;-145.48;100.00;64539.38;6047648;29;20033;-88
2022/10/17 16:59:42;;;;;;;5.95;3.58;;;;;;;-145.48;100.00;64539.38;6047664;29;20085;-88
2022/10/17 17:03:43;;;;;;;;;;;;;;;-145.48;100.00;64539.38;6046824;29;20067;-88
2022/10/17 17:07:44;;;;;;;;;;;;;;;-145.48;100.00;64539.38;6037392;29;20031;-89
2022/10/17 17:11:44;;;;;;;;;;;;;;;-145.48;100.00;64539.38;6048147;29;20405;-88
2022/10/17 17:15:44;;;;;;;6.05;4.30;;;;;;;-145.48;100.00;64539.38;6044634;29;19939;-88
2022/10/17 17:19:57;;;;;;;7.50;3.58;;;;;;;-145.48;100.00;64539.38;6040127;29;20089;-88
2022/10/17 17:23:58;;;;;;;7.25;3.85;;;;;;;-145.48;100.00;64539.38;6039609;29;20118;-88
2022/10/17 17:28:00;;;;;;;7.13;3.67;;;;;;;-145.48;100.00;64539.38;6031898;29;20049;-88
2022/10/17 17:32:04;;;;;;;9.57;4.20;;;;;;;-145.48;100.00;64539.38;6044945;29;20049;-88
2022/10/17 17:36:05;;;;;;;8.75;3.80;;;;;;;-145.48;100.00;64539.38;6042905;29;20110;-88
2022/10/17 17:40:07;;;;;;;8.50;3.78;;;;;;;-145.48;100.00;64539.38;6044798;29;20159;-88
2022/10/17 17:44:09;;;;;;;8.40;4.50;;;;;;;-145.48;100.00;64539.38;6044661;29;20049;-88
2022/10/17 17:48:16;;;;;;;9.00;4.88;;;;;;;-145.48;100.00;64539.38;6043806;29;20037;-88
2022/10/17 17:52:17;;;;;;;9.77;4.88;;;;;;;-145.48;100.00;64539.38;6042888;29;20069;-89
2022/10/17 17:56:19;;;;;;;7.55;4.50;;;;;;;-145.48;100.00;64539.38;6041747;29;20048;-89
2022/10/17 18:00:19;;;;;;;9.80;5.25;;;;;;;-145.48;100.00;64539.38;6042675;29;20377;-89
2022/10/17 18:04:20;;;;;;;8.60;4.75;;;;;;;-145.48;100.00;64539.38;6031642;29;20528;-90
2022/10/17 18:08:22;;;;;;;8.95;4.65;;;;;;;-145.48;100.00;64539.38;6033015;29;20511;-89
2022/10/17 18:12:23;;;;;;;7.70;4.70;;;;;;;-145.48;100.00;64539.38;6045544;29;20052;-89
2022/10/17 18:16:24;;;;;;;8.50;4.88;;;;;;;-145.48;100.00;64539.38;6034573;29;20046;-89
2022/10/17 18:20:24;;;;;;;5.60;4.15;;;;;;;-145.48;100.00;64539.38;6043311;29;20045;-89
2022/10/17 18:24:24;;;;;;;7.80;4.72;;;;;;;-145.48;100.00;64539.38;6050434;29;20044;-90
2022/10/17 18:28:25;;;;;;;11.30;5.20;;;;;;;-145.48;100.00;64539.38;6038461;29;20051;-89
2022/10/17 18:32:28;;;;;;;;;;;;;;;-145.48;100.00;64539.38;6042762;29;20081;-89
2022/10/17 18:36:29;;;;;;;7.93;4.78;;;;;;;-145.48;100.00;64539.38;6043143;29;19928;-89
2022/10/17 18:40:30;;;;;;;6.68;4.45;;;;;;;-145.48;100.00;64539.38;6042128;29;20069;-89
2022/10/17 18:44:32;;;;;;;6.15;4.82;;;;;;;-145.48;100.00;64539.38;6054140;29;20143;-89
2022/10/17 18:48:33;;;;;;;13.35;5.70;;;;;;;-145.48;100.00;64539.38;6031252;29;20056;-89
2022/10/17 18:52:34;;;;;;;9.25;5.43;;;;;;;-145.48;100.00;64539.38;6040421;29;20044;-89